Time;durP1;ratioP1;P1;durP2;ratioP2;P2;SDS_P1;SDS_P2;PMS_P1;PMS_P2;Temp;Humidity;BMP_temperature;BMP_pressure;BME280_temperature;BME280_humidity;BME280_pressure;Samples;Min_cycle;Max_cycle;Signal;HPM_P1;HPM_P2
2022/02/17 00:01:23;;;;;;;;;;;-1.00;99.90;;;;;;4172164;28;20784;-59
2022/02/17 00:03:24;;;;;;;;;;;-1.00;99.90;;;;;;4173029;28;20357;-56
2022/02/17 00:05:26;;;;;;;;;;;-0.90;99.90;;;;;;4171945;28;19912;-56
2022/02/17 00:07:27;;;;;;;;;;;-1.00;99.90;;;;;;4187446;28;19913;-54
2022/02/17 00:09:28;;;;;;;;;;;-0.90;99.90;;;;;;4190089;28;19912;-57
2022/02/17 00:11:28;;;;;;;;;;;-1.00;99.90;;;;;;4188878;28;19935;-56
2022/02/17 00:13:29;;;;;;;;;;;-0.90;99.90;;;;;;4190061;28;20034;-53
2022/02/17 00:15:31;;;;;;;;;;;-0.90;99.90;;;;;;4188944;28;19912;-52
2022/02/17 00:17:32;;;;;;;;;;;-0.90;99.90;;;;;;4188948;28;19974;-55
2022/02/17 00:19:33;;;;;;;;;;;-1.00;99.90;;;;;;4187535;28;20386;-62
2022/02/17 00:21:34;;;;;;;;;;;-1.00;99.90;;;;;;4189190;28;19910;-52
2022/02/17 00:23:35;;;;;;;;;;;-1.00;99.90;;;;;;4188831;28;20019;-59
2022/02/17 00:25:36;;;;;;;;;;;-1.00;99.90;;;;;;4188223;28;19917;-53
2022/02/17 00:27:38;;;;;;;;;;;-1.00;99.90;;;;;;4188333;28;19908;-51
2022/02/17 00:29:39;;;;;;;;;;;-1.00;99.90;;;;;;4189692;28;19943;-63
2022/02/17 00:31:40;;;;;;;;;;;-1.00;99.90;;;;;;4187270;28;19966;-52
2022/02/17 00:33:41;;;;;;;;;;;-0.90;99.90;;;;;;4188954;28;19924;-54
2022/02/17 00:35:42;;;;;;;;;;;-0.90;99.90;;;;;;4188327;28;20403;-53
2022/02/17 00:37:43;;;;;;;;;;;-1.00;99.90;;;;;;4178823;28;19966;-57
2022/02/17 00:39:44;;;;;;;;;;;-1.00;99.90;;;;;;4181675;28;19913;-54
2022/02/17 00:41:45;;;;;;;;;;;-1.10;99.90;;;;;;4180075;28;20913;-54
2022/02/17 00:43:47;;;;;;;;;;;-1.10;99.90;;;;;;4190502;28;19920;-66
2022/02/17 00:45:48;;;;;;;;;;;-1.00;99.90;;;;;;4191786;28;20279;-57
2022/02/17 00:47:50;;;;;;;;;;;-1.00;99.90;;;;;;4179258;28;19916;-51
2022/02/17 00:49:51;;;;;;;;;;;-1.10;99.90;;;;;;4175070;28;19970;-55
2022/02/17 00:51:52;;;;;;;;;;;-1.20;99.90;;;;;;4176795;28;20357;-54
2022/02/17 00:53:53;;;;;;;;;;;-1.20;99.90;;;;;;4179955;28;19974;-59
2022/02/17 00:55:54;;;;;;;;;;;-1.20;99.90;;;;;;4192241;28;19912;-56
2022/02/17 00:57:55;;;;;;;;;;;-1.30;99.90;;;;;;4186394;28;19980;-56
2022/02/17 00:59:56;;;;;;;;;;;-1.30;99.90;;;;;;4186597;28;19924;-51
2022/02/17 01:01:57;;;;;;;;;;;-1.30;99.90;;;;;;4178482;28;20763;-55
2022/02/17 01:03:58;;;;;;;;;;;-1.30;99.90;;;;;;4182697;28;19983;-60
2022/02/17 01:06:00;;;;;;;;;;;-1.20;99.90;;;;;;4180658;28;20526;-55
2022/02/17 01:08:01;;;;;;;;;;;-1.20;99.90;;;;;;4176317;28;19968;-58
2022/02/17 01:10:03;;;;;;;;;;;-1.20;99.90;;;;;;4179653;28;19943;-57
2022/02/17 01:12:04;;;;;;;;;;;-1.20;99.90;;;;;;4175594;28;19920;-64
2022/02/17 01:14:06;;;;;;;;;;;-1.30;99.90;;;;;;4181232;28;19959;-61
2022/02/17 01:16:07;;;;;;;;;;;-1.20;99.90;;;;;;4178351;28;19916;-54
2022/02/17 01:18:08;;;;;;;;;;;-1.20;99.90;;;;;;4162268;28;19927;-56
2022/02/17 01:20:09;;;;;;;;;;;-1.30;99.90;;;;;;4174542;28;19921;-59
2022/02/17 01:22:12;;;;;;;;;;;-1.20;99.90;;;;;;4180506;28;20363;-51
2022/02/17 01:24:13;;;;;;;;;;;-1.20;99.90;;;;;;4180115;28;19917;-53
2022/02/17 01:26:14;;;;;;;;;;;-1.30;99.90;;;;;;4180134;28;20293;-57
2022/02/17 01:28:14;;;;;;;;;;;-1.20;99.90;;;;;;4176796;28;19916;-57
2022/02/17 01:30:15;;;;;;;;;;;-1.20;99.90;;;;;;4180615;28;19986;-56
2022/02/17 01:32:16;;;;;;;;;;;-1.30;99.90;;;;;;4176580;28;19916;-61
2022/02/17 01:34:17;;;;;;;;;;;-1.30;99.90;;;;;;4181548;28;19916;-51
2022/02/17 01:36:18;;;;;;;;;;;-1.40;99.90;;;;;;4174950;28;19924;-53
2022/02/17 01:38:21;;;;;;;;;;;-1.40;99.90;;;;;;4175529;28;20459;-54
2022/02/17 01:40:21;;;;;;;;;;;-1.40;99.90;;;;;;4175556;28;19982;-57
2022/02/17 01:42:22;;;;;;;;;;;-1.50;99.90;;;;;;4184474;28;20342;-52
2022/02/17 01:44:23;;;;;;;;;;;-1.40;99.90;;;;;;4175612;28;19912;-58
2022/02/17 01:46:32;;;;;;;;;;;-1.30;99.90;;;;;;4174090;28;19917;-62
2022/02/17 01:48:33;;;;;;;;;;;-1.30;99.90;;;;;;4173597;28;19998;-57
2022/02/17 01:50:40;;;;;;;;;;;-1.10;99.90;;;;;;4175588;28;20569;-58
2022/02/17 01:52:41;;;;;;;;;;;-1.10;99.90;;;;;;4175099;28;20494;-56
2022/02/17 01:54:44;;;;;;;;;;;-1.10;99.90;;;;;;4173466;28;19917;-51
2022/02/17 01:56:45;;;;;;;;;;;-1.10;99.90;;;;;;4175377;28;19916;-53
2022/02/17 01:58:45;;;;;;;;;;;-1.20;99.90;;;;;;4174899;28;20368;-53
2022/02/17 02:00:47;;;;;;;;;;;-1.30;99.90;;;;;;4174571;28;19924;-56
2022/02/17 02:02:48;;;;;;;;;;;-1.50;99.90;;;;;;4173442;28;20365;-53
2022/02/17 02:04:49;;;;;;;;;;;-1.60;99.90;;;;;;4174622;28;19913;-51
2022/02/17 02:06:50;;;;;;;;;;;-1.60;99.90;;;;;;4188289;28;19916;-61
2022/02/17 02:08:51;;;;;;;;;;;-1.70;99.90;;;;;;4189088;28;19916;-55
2022/02/17 02:10:52;;;;;;;;;;;-1.70;99.90;;;;;;4188400;28;19974;-52
2022/02/17 02:12:53;;;;;;;;;;;-1.70;99.90;;;;;;4185202;28;19925;-52
2022/02/17 02:14:55;;;;;;;;;;;-1.60;99.90;;;;;;4176127;28;20438;-54
2022/02/17 02:16:56;;;;;;;;;;;-1.60;99.90;;;;;;4173436;28;19955;-55
2022/02/17 02:18:57;;;;;;;;;;;-1.60;99.90;;;;;;4174183;28;19917;-52
2022/02/17 02:20:58;;;;;;;;;;;-1.50;99.90;;;;;;4174366;28;19920;-54
2022/02/17 02:22:58;;;;;;;;;;;-1.40;99.90;;;;;;4175569;28;19917;-56
2022/02/17 02:25:00;;;;;;;;;;;-1.40;99.90;;;;;;4179740;28;20857;-57
2022/02/17 02:27:09;;;;;;;;;;;-1.40;99.90;;;;;;4190666;28;19912;-58
2022/02/17 02:29:10;;;;;;;;;;;-1.40;99.90;;;;;;4188563;28;19908;-59
2022/02/17 02:31:11;;;;;;;;;;;-1.40;99.90;;;;;;4175317;28;19923;-56
2022/02/17 02:33:12;;;;;;;;;;;-1.30;99.90;;;;;;4189183;28;20011;-55
2022/02/17 02:35:13;;;;;;;;;;;-1.30;99.90;;;;;;4172884;28;19920;-56
2022/02/17 02:37:14;;;;;;;;;;;-1.40;99.90;;;;;;4188379;28;20300;-59
2022/02/17 02:39:15;;;;;;;;;;;-1.40;99.90;;;;;;4186260;28;19909;-62
2022/02/17 02:41:16;;;;;;;;;;;-1.40;99.90;;;;;;4181767;28;19917;-62
2022/02/17 02:43:17;;;;;;;;;;;-1.40;99.90;;;;;;4181292;28;19916;-65
2022/02/17 02:45:18;;;;;;;;;;;-1.40;99.90;;;;;;4188976;28;19913;-54
2022/02/17 02:47:19;;;;;;;;;;;-1.40;99.90;;;;;;4188373;28;19969;-57
2022/02/17 02:49:20;;;;;;;;;;;-1.40;99.90;;;;;;4190623;28;19913;-59
2022/02/17 02:51:20;;;;;;;;;;;-1.30;99.90;;;;;;4171459;28;19959;-55
2022/02/17 02:53:21;;;;;;;;;;;-1.30;99.90;;;;;;4188716;28;20377;-61
2022/02/17 02:55:22;;;;;;;;;;;-1.30;99.90;;;;;;4178891;28;19928;-53
2022/02/17 02:57:25;;;;;;;;;;;-1.30;99.90;;;;;;4178414;28;19916;-55
2022/02/17 02:59:26;;;;;;;;;;;-1.30;99.90;;;;;;4187638;28;19954;-54
2022/02/17 03:01:27;;;;;;;;;;;-1.40;99.90;;;;;;4189793;28;19912;-52
2022/02/17 03:03:28;;;;;;;;;;;-1.50;99.90;;;;;;4187249;28;20430;-56
2022/02/17 03:05:29;;;;;;;;;;;-1.60;99.90;;;;;;4190792;28;19962;-62
2022/02/17 03:07:30;;;;;;;;;;;-1.70;99.90;;;;;;4187900;28;19921;-67
2022/02/17 03:09:31;;;;;;;;;;;-1.70;99.90;;;;;;4188236;28;19916;-56
2022/02/17 03:11:32;;;;;;;;;;;-1.80;99.90;;;;;;4179882;28;19970;-61
2022/02/17 03:13:33;;;;;;;;;;;-1.80;99.90;;;;;;4183864;28;19970;-53
2022/02/17 03:15:34;;;;;;;;;;;-1.80;99.90;;;;;;4187401;28;19920;-56
2022/02/17 03:17:35;;;;;;;;;;;-1.80;99.90;;;;;;4189278;28;19974;-54
2022/02/17 03:19:36;;;;;;;;;;;-1.90;99.90;;;;;;4178854;28;19959;-56
2022/02/17 03:21:37;;;;;;;;;;;-1.80;99.90;;;;;;4172734;28;20793;-55
2022/02/17 03:23:38;;;;;;;;;;;-1.80;99.90;;;;;;4174934;28;19938;-53
2022/02/17 03:25:39;;;;;;;;;;;-1.80;99.90;;;;;;4172690;28;19916;-55
2022/02/17 03:27:40;;;;;;;;;;;-1.80;99.90;;;;;;4175430;28;20715;-56
2022/02/17 03:29:41;;;;;;;;;;;-1.90;99.90;;;;;;4176708;28;19967;-55
2022/02/17 03:31:42;;;;;;;;;;;-1.90;99.90;;;;;;4184542;28;19951;-55
2022/02/17 03:33:43;;;;;;;;;;;-2.00;99.90;;;;;;4185609;28;19948;-53
2022/02/17 03:35:44;;;;;;;;;;;-2.10;99.90;;;;;;4178803;28;19912;-56
2022/02/17 03:37:45;;;;;;;;;;;-2.20;99.90;;;;;;4178690;28;19995;-57
2022/02/17 03:39:46;;;;;;;;;;;-2.10;99.90;;;;;;4174881;28;19921;-54
2022/02/17 03:41:47;;;;;;;;;;;-2.20;99.90;;;;;;4172070;28;19913;-52
2022/02/17 03:43:48;;;;;;;;;;;-2.20;99.90;;;;;;4181338;28;19917;-59
2022/02/17 03:45:49;;;;;;;;;;;-2.20;99.90;;;;;;4189378;28;19908;-57
2022/02/17 03:47:50;;;;;;;;;;;-2.10;99.90;;;;;;4189116;28;19958;-53
2022/02/17 03:49:50;;;;;;;;;;;-2.20;99.90;;;;;;4189707;28;19965;-55
2022/02/17 03:51:51;;;;;;;;;;;-2.20;99.90;;;;;;4188097;28;20276;-53
2022/02/17 03:53:52;;;;;;;;;;;-2.20;99.90;;;;;;4189379;28;19927;-65
2022/02/17 03:55:53;;;;;;;;;;;-2.20;99.90;;;;;;4188868;28;19912;-55
2022/02/17 03:57:55;;;;;;;;;;;-2.10;99.90;;;;;;4189606;28;19912;-59
2022/02/17 03:59:56;;;;;;;;;;;-2.10;99.90;;;;;;4188710;28;19993;-53
2022/02/17 04:01:58;;;;;;;;;;;-2.10;99.90;;;;;;4189942;28;20699;-54
2022/02/17 04:04:00;;;;;;;;;;;-2.10;99.90;;;;;;4187055;28;19962;-53
2022/02/17 04:06:01;;;;;;;;;;;-2.10;99.90;;;;;;4190327;28;19970;-56
2022/02/17 04:08:02;;;;;;;;;;;-2.10;99.90;;;;;;4188404;28;20016;-57
2022/02/17 04:10:03;;;;;;;;;;;-2.10;99.90;;;;;;4190143;28;19956;-54
2022/02/17 04:12:05;;;;;;;;;;;-2.00;99.90;;;;;;4191511;28;20358;-53
2022/02/17 04:14:06;;;;;;;;;;;-2.10;99.90;;;;;;4191955;28;19921;-56
2022/02/17 04:16:07;;;;;;;;;;;-2.00;99.90;;;;;;4192118;28;19915;-53
2022/02/17 04:18:08;;;;;;;;;;;-2.00;99.90;;;;;;4191860;28;19962;-61
2022/02/17 04:20:09;;;;;;;;;;;-2.00;99.90;;;;;;4190123;28;19913;-55
2022/02/17 04:22:10;;;;;;;;;;;-2.00;99.90;;;;;;4191668;28;19917;-56
2022/02/17 04:24:11;;;;;;;;;;;-2.00;99.90;;;;;;4193060;28;19912;-61
2022/02/17 04:26:13;;;;;;;;;;;-2.00;99.90;;;;;;4191019;28;20014;-53
2022/02/17 04:28:14;;;;;;;;;;;-2.00;99.90;;;;;;4192483;28;19958;-54
2022/02/17 04:30:15;;;;;;;;;;;-2.00;99.90;;;;;;4182654;28;20360;-64
2022/02/17 04:32:16;;;;;;;;;;;-2.00;99.90;;;;;;4176456;28;19955;-55
2022/02/17 04:34:17;;;;;;;;;;;-2.00;99.90;;;;;;4174815;28;20382;-49
2022/02/17 04:36:18;;;;;;;;;;;-2.00;99.90;;;;;;4176875;28;19917;-52
2022/02/17 04:38:19;;;;;;;;;;;-2.00;99.90;;;;;;4175298;28;19962;-53
2022/02/17 04:42:17;;;;;;;;;;;-2.00;99.90;;;;;;4176102;28;19913;-59
2022/02/17 04:42:41;;;;;;;;;;;-2.00;99.90;;;;;;4175042;28;19958;-52
2022/02/17 04:44:42;;;;;;;;;;;-2.00;99.90;;;;;;4176050;28;19912;-55
2022/02/17 04:46:43;;;;;;;;;;;-2.00;99.90;;;;;;4175942;28;20365;-55
2022/02/17 04:48:44;;;;;;;;;;;-2.00;99.90;;;;;;4175900;28;19917;-59
2022/02/17 04:50:45;;;;;;;;;;;-2.00;99.90;;;;;;4175582;28;19939;-56
2022/02/17 04:52:46;;;;;;;;;;;-2.00;99.90;;;;;;4174291;28;20350;-57
2022/02/17 04:54:47;;;;;;;;;;;-2.00;99.90;;;;;;4175705;28;19917;-56
2022/02/17 04:56:48;;;;;;;;;;;-2.00;99.90;;;;;;4174835;28;20345;-54
2022/02/17 04:58:48;;;;;;;;;;;-2.00;99.90;;;;;;4175908;28;19917;-56
2022/02/17 05:00:50;;;;;;;;;;;-2.00;99.90;;;;;;4180450;28;19970;-53
2022/02/17 05:02:51;;;;;;;;;;;-1.90;99.90;;;;;;4181196;28;19963;-53
2022/02/17 05:04:52;;;;;;;;;;;-1.90;99.90;;;;;;4178129;28;20458;-61
2022/02/17 05:06:54;;;;;;;;;;;-1.90;99.90;;;;;;4176584;28;19919;-54
2022/02/17 05:08:55;;;;;;;;;;;-1.90;99.90;;;;;;4174090;28;19963;-55
2022/02/17 05:10:56;;;;;;;;;;;-2.00;99.90;;;;;;4175431;28;19917;-55
2022/02/17 05:12:57;;;;;;;;;;;-2.00;99.90;;;;;;4175135;28;19925;-59
2022/02/17 05:14:59;;;;;;;;;;;-1.90;99.90;;;;;;4174939;28;19916;-56
2022/02/17 05:17:00;;;;;;;;;;;-1.90;99.90;;;;;;4173659;28;20316;-56
2022/02/17 05:19:01;;;;;;;;;;;-1.80;99.90;;;;;;4174280;28;19967;-51
2022/02/17 05:21:02;;;;;;;;;;;-1.70;99.90;;;;;;4174157;28;19913;-57
2022/02/17 05:23:03;;;;;;;;;;;-1.70;99.90;;;;;;4174199;28;19963;-58
2022/02/17 05:25:04;;;;;;;;;;;-1.60;99.90;;;;;;4181329;28;19940;-58
2022/02/17 05:27:05;;;;;;;;;;;-1.60;99.90;;;;;;4175778;28;20435;-59
2022/02/17 05:29:06;;;;;;;;;;;-1.60;99.90;;;;;;4189011;28;19912;-58
2022/02/17 05:31:07;;;;;;;;;;;-1.60;99.90;;;;;;4191026;28;19919;-58
2022/02/17 05:33:11;;;;;;;;;;;-1.70;99.90;;;;;;4191706;28;19912;-57
2022/02/17 05:35:12;;;;;;;;;;;-1.70;99.90;;;;;;4190699;28;20293;-59
2022/02/17 05:37:13;;;;;;;;;;;-1.80;99.90;;;;;;4191674;28;19978;-56
2022/02/17 05:39:14;;;;;;;;;;;-1.90;99.90;;;;;;4178630;28;19921;-57
2022/02/17 05:41:15;;;;;;;;;;;-1.90;99.90;;;;;;4191676;28;19940;-60
2022/02/17 05:43:17;;;;;;;;;;;-1.90;99.90;;;;;;4190549;28;20660;-58
2022/02/17 05:45:18;;;;;;;;;;;-1.90;99.90;;;;;;4191130;28;19916;-58
2022/02/17 05:47:18;;;;;;;;;;;-1.90;99.90;;;;;;4190115;28;20434;-59
2022/02/17 05:49:19;;;;;;;;;;;-1.90;99.90;;;;;;4190822;28;19974;-61
2022/02/17 05:51:20;;;;;;;;;;;-1.90;99.90;;;;;;4190175;28;19939;-66
2022/02/17 05:53:21;;;;;;;;;;;-1.80;99.90;;;;;;4187830;28;20028;-68
2022/02/17 05:55:22;;;;;;;;;;;-1.80;99.90;;;;;;4178274;28;19958;-62
2022/02/17 05:57:23;;;;;;;;;;;-1.80;99.90;;;;;;4179089;28;20361;-55
2022/02/17 05:59:24;;;;;;;;;;;-1.80;99.90;;;;;;4173728;28;19925;-58
2022/02/17 06:01:25;;;;;;;;;;;-1.70;99.90;;;;;;4171701;28;19917;-57
2022/02/17 06:03:26;;;;;;;;;;;-1.70;99.90;;;;;;4156738;28;19916;-57
2022/02/17 06:05:27;;;;;;;;;;;-1.60;99.90;;;;;;4173666;28;19912;-62
2022/02/17 06:07:28;;;;;;;;;;;-1.60;99.90;;;;;;4174394;28;19913;-54
2022/02/17 06:09:29;;;;;;;;;;;-1.50;99.90;;;;;;4173763;28;20017;-57
2022/02/17 06:11:30;;;;;;;;;;;-1.50;99.90;;;;;;4174084;28;19913;-62
2022/02/17 06:13:31;;;;;;;;;;;-1.50;99.90;;;;;;4172257;28;19974;-66
2022/02/17 06:15:32;;;;;;;;;;;-1.40;99.90;;;;;;4173879;28;19917;-58
2022/02/17 06:17:33;;;;;;;;;;;-1.40;99.90;;;;;;4173507;28;19963;-57
2022/02/17 06:19:34;;;;;;;;;;;-1.40;99.90;;;;;;4174157;28;20688;-59
2022/02/17 06:21:35;;;;;;;;;;;-1.40;99.90;;;;;;4174076;28;19913;-61
2022/02/17 06:23:36;;;;;;;;;;;-1.30;99.90;;;;;;4173572;28;20474;-64
2022/02/17 06:25:37;;;;;;;;;;;-1.30;99.90;;;;;;4173633;28;19925;-56
2022/02/17 06:27:38;;;;;;;;;;;-1.30;99.90;;;;;;4173933;28;19930;-63
2022/02/17 06:29:39;;;;;;;;;;;-1.40;99.90;;;;;;4190119;28;20682;-57
2022/02/17 06:31:40;;;;;;;;;;;-1.40;99.90;;;;;;4189069;28;19990;-59
2022/02/17 06:33:41;;;;;;;;;;;-1.40;99.90;;;;;;4190206;28;19921;-64
2022/02/17 06:35:42;;;;;;;;;;;-1.40;99.90;;;;;;4189892;28;19924;-60
2022/02/17 06:37:43;;;;;;;;;;;-1.50;99.90;;;;;;4190584;28;19928;-59
2022/02/17 06:39:44;;;;;;;;;;;-1.40;99.90;;;;;;4189453;28;20341;-55
2022/02/17 06:41:45;;;;;;;;;;;-1.40;99.90;;;;;;4190097;28;19987;-56
2022/02/17 06:43:46;;;;;;;;;;;-1.50;99.90;;;;;;4189730;28;19909;-58
2022/02/17 06:45:47;;;;;;;;;;;-1.50;99.90;;;;;;4189960;28;19951;-57
2022/02/17 06:47:48;;;;;;;;;;;-1.60;99.90;;;;;;4189596;28;19924;-55
2022/02/17 06:49:49;;;;;;;;;;;-1.60;99.90;;;;;;4189842;28;19912;-55
2022/02/17 06:51:50;;;;;;;;;;;-1.60;99.90;;;;;;4189601;28;19967;-54
2022/02/17 06:53:51;;;;;;;;;;;-1.50;99.90;;;;;;4189294;28;19924;-57
2022/02/17 06:55:52;;;;;;;;;;;-1.40;99.90;;;;;;4190152;28;20366;-68
2022/02/17 06:57:53;;;;;;;;;;;-1.40;99.90;;;;;;4189207;28;19908;-58
2022/02/17 06:59:54;;;;;;;;;;;-1.40;99.90;;;;;;4190101;28;19948;-60
2022/02/17 07:01:55;;;;;;;;;;;-1.40;99.90;;;;;;4188793;28;20418;-54
2022/02/17 07:03:56;;;;;;;;;;;-1.30;99.90;;;;;;4190143;28;19916;-56
2022/02/17 07:05:57;;;;;;;;;;;-1.30;99.90;;;;;;4189187;28;19964;-58
2022/02/17 07:07:58;;;;;;;;;;;-1.40;99.90;;;;;;4190051;28;19913;-68
2022/02/17 07:09:59;;;;;;;;;;;-1.30;99.90;;;;;;4188656;28;19963;-57
2022/02/17 07:12:00;;;;;;;;;;;-1.20;99.90;;;;;;4190265;28;20394;-57
2022/02/17 07:14:02;;;;;;;;;;;-1.20;99.90;;;;;;4188845;28;19970;-59
2022/02/17 07:16:04;;;;;;;;;;;-1.10;99.90;;;;;;4189203;28;19912;-55
2022/02/17 07:18:05;;;;;;;;;;;-1.10;99.90;;;;;;4188931;28;19966;-62
2022/02/17 07:20:06;;;;;;;;;;;-1.00;99.90;;;;;;4189286;28;20025;-71
2022/02/17 07:22:07;;;;;;;;;;;-1.00;99.90;;;;;;4189128;28;19912;-69
2022/02/17 07:24:08;;;;;;;;;;;-0.90;99.90;;;;;;4189435;28;19962;-55
2022/02/17 07:26:09;;;;;;;;;;;-0.90;99.90;;;;;;4189984;28;19912;-54
2022/02/17 07:28:10;;;;;;;;;;;-0.90;99.90;;;;;;4188422;28;20619;-63
2022/02/17 07:30:12;;;;;;;;;;;-0.80;99.90;;;;;;4189883;28;20012;-56
2022/02/17 07:32:13;;;;;;;;;;;-0.70;99.90;;;;;;4188507;28;20357;-58
2022/02/17 07:34:13;;;;;;;;;;;-0.70;99.90;;;;;;4189230;28;19927;-53
2022/02/17 07:36:16;;;;;;;;;;;-0.60;99.90;;;;;;4189009;28;19943;-57
2022/02/17 07:38:17;;;;;;;;;;;-0.60;99.90;;;;;;4189109;28;19912;-60
2022/02/17 07:40:18;;;;;;;;;;;-0.50;99.90;;;;;;4188202;28;19917;-57
2022/02/17 07:42:19;;;;;;;;;;;-0.50;99.90;;;;;;4189154;28;19917;-58
2022/02/17 07:44:24;;;;;;;;;;;-0.50;99.90;;;;;;4187786;28;19912;-62
2022/02/17 07:46:25;;;;;;;;;;;-0.40;99.90;;;;;;4188283;28;19962;-62
2022/02/17 07:48:27;;;;;;;;;;;-0.40;99.90;;;;;;4188520;28;20375;-57
2022/02/17 07:50:28;;;;;;;;;;;-0.30;99.90;;;;;;4189078;28;19981;-58
2022/02/17 07:52:29;;;;;;;;;;;-0.30;99.90;;;;;;4188823;28;20254;-58
2022/02/17 07:54:30;;;;;;;;;;;-0.30;99.90;;;;;;4188309;28;19974;-61
2022/02/17 07:56:31;;;;;;;;;;;-0.30;99.90;;;;;;4188411;28;19912;-60
2022/02/17 07:58:32;;;;;;;;;;;-0.40;99.90;;;;;;4188303;28;19943;-55
2022/02/17 08:00:33;;;;;;;;;;;-0.40;99.90;;;;;;4188208;28;19924;-54
2022/02/17 08:02:34;;;;;;;;;;;-0.40;99.90;;;;;;4187601;28;20477;-54
2022/02/17 08:04:37;;;;;;;;;;;-0.30;99.90;;;;;;4188316;28;20299;-63
2022/02/17 08:06:38;;;;;;;;;;;-0.30;99.90;;;;;;4188384;28;20002;-61
2022/02/17 08:08:41;;;;;;;;;;;-0.20;99.90;;;;;;4189850;28;19912;-54
2022/02/17 08:10:42;;;;;;;;;;;-0.20;99.90;;;;;;4188681;28;19908;-59
2022/02/17 08:12:43;;;;;;;;;;;-0.20;99.90;;;;;;4189757;28;19920;-68
2022/02/17 08:14:45;;;;;;;;;;;-0.20;99.90;;;;;;4188079;28;19924;-65
2022/02/17 08:16:45;;;;;;;;;;;-0.30;99.90;;;;;;4189417;28;20318;-59
2022/02/17 08:18:47;;;;;;;;;;;-0.20;99.90;;;;;;4187028;28;19958;-61
2022/02/17 08:20:48;;;;;;;;;;;-0.20;99.90;;;;;;4189235;28;19912;-59
2022/02/17 08:22:50;;;;;;;;;;;-0.20;99.90;;;;;;4188459;28;19966;-57
2022/02/17 08:24:51;;;;;;;;;;;-0.20;99.90;;;;;;4187952;28;20331;-53
2022/02/17 08:26:56;;;;;;;;;;;-0.20;99.90;;;;;;4187980;28;19909;-63
2022/02/17 08:29:00;;;;;;;;;;;-0.10;99.90;;;;;;4188125;28;19985;-56
2022/02/17 08:31:01;;;;;;;;;;;-0.10;99.90;;;;;;4188898;28;19958;-58
2022/02/17 08:33:02;;;;;;;;;;;0.00;99.90;;;;;;4188500;28;20376;-61
2022/02/17 08:35:04;;;;;;;;;;;0.00;99.90;;;;;;4188949;28;19925;-56
2022/02/17 08:37:06;;;;;;;;;;;0.00;99.90;;;;;;4188360;28;19958;-59
2022/02/17 08:39:07;;;;;;;;;;;-0.10;99.90;;;;;;4189304;28;19966;-57
2022/02/17 08:41:09;;;;;;;;;;;-0.10;99.90;;;;;;4187624;28;19912;-55
2022/02/17 08:43:10;;;;;;;;;;;-0.10;99.90;;;;;;4188777;28;19914;-61
2022/02/17 08:45:11;;;;;;;;;;;-0.20;99.90;;;;;;4186940;28;19958;-59
2022/02/17 08:47:14;;;;;;;;;;;-0.20;99.90;;;;;;4187826;28;19920;-61
2022/02/17 08:49:15;;;;;;;;;;;-0.20;99.90;;;;;;4187548;28;19987;-52
2022/02/17 08:51:17;;;;;;;;;;;-0.10;99.90;;;;;;4188657;28;19912;-59
2022/02/17 08:53:18;;;;;;;;;;;-0.20;99.90;;;;;;4187507;28;19989;-61
2022/02/17 08:55:19;;;;;;;;;;;-0.10;99.90;;;;;;4188756;28;19920;-63
2022/02/17 08:57:20;;;;;;;;;;;-0.10;99.90;;;;;;4190968;28;19971;-58
2022/02/17 08:59:21;;;;;;;;;;;-0.10;99.90;;;;;;4191007;28;19931;-66
2022/02/17 09:01:21;;;;;;;;;;;0.00;99.90;;;;;;4192237;28;19916;-55
2022/02/17 09:03:22;;;;;;;;;;;0.10;99.90;;;;;;4191207;28;19916;-59
2022/02/17 09:05:24;;;;;;;;;;;0.10;99.90;;;;;;4191821;28;19919;-61
2022/02/17 09:07:25;;;;;;;;;;;0.20;99.90;;;;;;4190672;28;19913;-61
2022/02/17 09:09:27;;;;;;;;;;;0.20;99.90;;;;;;4192132;28;19958;-56
2022/02/17 09:11:28;;;;;;;;;;;0.20;99.90;;;;;;4190800;28;19994;-58
2022/02/17 09:13:28;;;;;;;;;;;0.20;99.90;;;;;;4191494;28;19928;-57
2022/02/17 09:15:29;;;;;;;;;;;0.30;99.90;;;;;;4190812;28;19967;-54
2022/02/17 09:17:31;;;;;;;;;;;0.40;99.90;;;;;;4191976;28;19913;-57
2022/02/17 09:19:32;;;;;;;;;;;0.50;99.90;;;;;;4190445;28;19912;-54
2022/02/17 09:21:33;;;;;;;;;;;0.50;99.90;;;;;;4191962;28;19916;-56
2022/02/17 09:23:34;;;;;;;;;;;0.60;99.90;;;;;;4190678;28;19922;-57
2022/02/17 09:25:36;;;;;;;;;;;0.70;99.90;;;;;;4190987;28;19912;-58
2022/02/17 09:27:37;;;;;;;;;;;0.80;99.90;;;;;;4190874;28;19969;-62
2022/02/17 09:29:40;;;;;;;;;;;0.80;99.90;;;;;;4190666;28;20030;-56
2022/02/17 09:31:40;;;;;;;;;;;0.80;99.90;;;;;;4191280;28;19924;-57
2022/02/17 09:33:41;;;;;;;;;;;0.90;99.90;;;;;;4190026;28;20483;-58
2022/02/17 09:35:42;;;;;;;;;;;1.00;99.90;;;;;;4191535;28;20353;-55
2022/02/17 09:37:43;;;;;;;;;;;1.20;99.90;;;;;;4190957;28;20340;-67
2022/02/17 09:39:44;;;;;;;;;;;1.30;99.90;;;;;;4191870;28;20331;-57
2022/02/17 09:41:46;;;;;;;;;;;1.50;99.90;;;;;;4190539;28;19912;-62
2022/02/17 09:43:49;;;;;;;;;;;1.60;99.90;;;;;;4191680;28;19958;-53
2022/02/17 09:45:51;;;;;;;;;;;1.70;99.90;;;;;;4190097;28;20410;-58
2022/02/17 09:47:53;;;;;;;;;;;1.90;99.90;;;;;;4191290;28;20319;-58
2022/02/17 09:49:54;;;;;;;;;;;2.10;99.90;;;;;;4190266;28;19912;-56
2022/02/17 09:51:55;;;;;;;;;;;2.20;99.90;;;;;;4191084;28;19994;-62
2022/02/17 09:53:56;;;;;;;;;;;2.30;99.90;;;;;;4190414;28;19913;-58
2022/02/17 09:55:57;;;;;;;;;;;2.50;99.90;;;;;;4191169;28;19965;-60
2022/02/17 09:57:59;;;;;;;;;;;2.60;99.90;;;;;;4190368;28;19912;-56
2022/02/17 10:00:00;;;;;;;;;;;2.60;99.90;;;;;;4190486;28;19920;-56
2022/02/17 10:02:05;;;;;;;;;;;2.70;99.90;;;;;;4190877;28;20359;-59
2022/02/17 10:04:16;;;;;;;;;;;2.80;99.90;;;;;;4189321;28;19912;-58
2022/02/17 10:06:20;;;;;;;;;;;3.00;99.90;;;;;;4190755;28;19978;-57
2022/02/17 10:08:21;;;;;;;;;;;3.00;99.90;;;;;;4188562;28;19958;-61
2022/02/17 10:10:23;;;;;;;;;;;3.00;99.90;;;;;;4190844;28;20365;-56
2022/02/17 10:12:24;;;;;;;;;;;3.00;99.90;;;;;;4189708;28;20307;-57
2022/02/17 10:14:25;;;;;;;;;;;3.00;99.90;;;;;;4189593;28;19921;-57
2022/02/17 10:16:26;;;;;;;;;;;3.00;99.90;;;;;;4188119;28;20447;-63
2022/02/17 10:18:30;;;;;;;;;;;3.10;99.90;;;;;;4190243;28;19912;-63
2022/02/17 10:20:49;;;;;;;;;;;3.30;99.90;;;;;;4189733;28;19912;-54
2022/02/17 10:22:50;;;;;;;;;;;3.50;99.90;;;;;;4188466;28;19912;-57
2022/02/17 10:24:52;;;;;;;;;;;3.70;99.90;;;;;;4189384;28;20372;-58
2022/02/17 10:26:59;;;;;;;;;;;3.80;99.90;;;;;;4190876;28;19920;-58
2022/02/17 10:29:01;;;;;;;;;;;3.90;99.90;;;;;;4189286;28;19973;-62
2022/02/17 10:31:02;;;;;;;;;;;3.90;99.90;;;;;;4190836;28;20368;-59
2022/02/17 10:33:07;;;;;;;;;;;3.90;99.90;;;;;;4189059;28;19982;-60
2022/02/17 10:35:12;;;;;;;;;;;4.00;99.90;;;;;;4189855;28;19928;-57
2022/02/17 10:37:13;;;;;;;;;;;4.00;99.90;;;;;;4189513;28;19913;-55
2022/02/17 10:39:15;;;;;;;;;;;4.10;99.90;;;;;;4189569;28;19958;-65
2022/02/17 10:41:16;;;;;;;;;;;4.20;99.90;;;;;;4189609;28;19908;-57
2022/02/17 10:43:17;;;;;;;;;;;4.30;99.90;;;;;;4189352;28;19912;-59
2022/02/17 10:45:21;;;;;;;;;;;4.40;99.90;;;;;;4189001;28;19913;-57
2022/02/17 10:47:28;;;;;;;;;;;4.60;99.90;;;;;;4186705;28;19916;-55
2022/02/17 10:49:30;;;;;;;;;;;4.70;99.90;;;;;;4189772;28;19941;-63
2022/02/17 10:51:31;;;;;;;;;;;4.70;99.90;;;;;;4189020;28;20007;-66
2022/02/17 10:53:35;;;;;;;;;;;4.80;99.90;;;;;;4190006;28;20003;-61
2022/02/17 10:55:36;;;;;;;;;;;4.90;99.90;;;;;;4189010;28;19921;-58
2022/02/17 10:57:37;;;;;;;;;;;5.10;99.90;;;;;;4190072;28;19955;-63
2022/02/17 11:01:58;;;;;;;;;;;5.20;99.90;;;;;;4190037;28;19966;-58
2022/02/17 11:04:00;;;;;;;;;;;5.20;99.90;;;;;;4188158;28;20402;-68
2022/02/17 11:06:02;;;;;;;;;;;5.30;99.90;;;;;;4190129;28;19909;-61
2022/02/17 11:08:04;;;;;;;;;;;5.50;99.90;;;;;;4188423;28;19908;-65
2022/02/17 11:10:07;;;;;;;;;;;5.60;99.90;;;;;;4189273;28;19913;-60
2022/02/17 11:12:08;;;;;;;;;;;5.70;99.90;;;;;;4188592;28;19958;-59
2022/02/17 11:14:09;;;;;;;;;;;5.70;99.90;;;;;;4189202;28;19966;-56
2022/02/17 11:16:10;;;;;;;;;;;5.80;99.90;;;;;;4187915;28;20462;-59
2022/02/17 11:18:11;;;;;;;;;;;5.90;99.90;;;;;;4189388;28;19912;-57
2022/02/17 11:20:20;;;;;;;;;;;6.00;99.90;;;;;;4188895;28;19912;-58
2022/02/17 11:22:21;;;;;;;;;;;6.20;99.90;;;;;;4189279;28;20008;-70
2022/02/17 11:24:22;;;;;;;;;;;6.40;99.90;;;;;;4189081;28;19962;-61
2022/02/17 11:26:25;;;;;;;;;;;6.70;99.90;;;;;;4188691;28;20299;-65
2022/02/17 11:28:31;;;;;;;;;;;6.90;99.90;;;;;;4189139;28;19908;-57
2022/02/17 11:30:33;;;;;;;;;;;7.10;99.90;;;;;;4187857;28;19908;-60
2022/02/17 11:32:34;;;;;;;;;;;7.20;99.90;;;;;;4189598;28;19966;-58
2022/02/17 11:34:36;;;;;;;;;;;7.40;99.90;;;;;;4188483;28;19999;-54
2022/02/17 11:36:37;;;;;;;;;;;7.60;99.90;;;;;;4190265;28;19962;-58
2022/02/17 11:38:39;;;;;;;;;;;7.70;99.90;;;;;;4187300;28;19912;-57
2022/02/17 11:40:56;;;;;;;;;;;7.90;99.90;;;;;;4189879;28;19917;-57
2022/02/17 11:43:04;;;;;;;;;;;8.10;99.90;;;;;;4188257;28;19916;-56
2022/02/17 11:45:09;;;;;;;;;;;8.10;99.90;;;;;;4189545;28;20444;-62
2022/02/17 11:47:11;;;;;;;;;;;8.20;99.90;;;;;;4187646;28;20026;-65
2022/02/17 11:49:34;;;;;;;;;;;8.30;99.90;;;;;;4189021;28;19935;-67
2022/02/17 11:51:35;;;;;;;;;;;8.40;99.90;;;;;;4187885;28;19912;-58
2022/02/17 11:53:37;;;;;;;;;;;8.50;99.90;;;;;;4189514;28;19909;-59